Time;durP1;ratioP1;P1;durP2;ratioP2;P2;SDS_P1;SDS_P2;PMS_P1;PMS_P2;Temp;Humidity;BMP_temperature;BMP_pressure;BME280_temperature;BME280_humidity;BME280_pressure;Samples;Min_cycle;Max_cycle;Signal;HPM_P1;HPM_P2
2022/12/09 02:41:01;;;;;;;13.03;7.28;;;;;;;;;;1818727;77;22152;-65
2022/12/09 02:43:32;;;;;;;13.80;6.67;;;;;;;;;;1768365;80;21012;-66
2022/12/09 02:45:58;;;;;;;12.35;6.35;;;;;;;;;;1786824;80;20982;-66
2022/12/09 02:48:27;;;;;;;16.12;7.28;;;;;;;;;;1767865;80;21060;-64
2022/12/09 02:50:53;;;;;;;13.05;6.78;;;;;;;;;;1761256;80;21021;-64
2022/12/09 02:53:20;;;;;;;13.20;6.80;;;;;;;;;;1766175;80;21027;-65
2022/12/09 02:55:46;;;;;;;12.05;6.35;;;;;;;;;;1795478;80;21027;-65
2022/12/09 02:58:14;;;;;;;14.47;7.03;;;;;;;;;;1795695;80;21084;-65
2022/12/09 03:00:41;;;;;;;13.50;6.42;;;;;;;;;;1794837;79;21079;-65
2022/12/09 03:03:09;;;;;;;12.35;6.25;;;;;;;;;;1765124;80;21052;-65
2022/12/09 03:05:37;;;;;;;14.33;7.00;;;;;;;;;;1761531;81;21041;-66
2022/12/09 03:08:11;;;;;;;13.53;7.28;;;;;;;;;;1764909;80;21036;-65
2022/12/09 03:10:39;;;;;;;20.20;8.83;;;;;;;;;;1780347;80;21052;-65
2022/12/09 03:13:07;;;;;;;20.57;9.50;;;;;;;;;;1774369;80;20989;-65
2022/12/09 03:15:33;;;;;;;16.10;7.25;;;;;;;;;;1770283;80;21037;-66
2022/12/09 03:18:00;;;;;;;11.95;6.00;;;;;;;;;;1772742;80;21049;-66
2022/12/09 03:20:27;;;;;;;12.03;6.10;;;;;;;;;;1785364;80;21021;-65
2022/12/09 03:22:55;;;;;;;12.88;6.40;;;;;;;;;;1761685;80;21099;-66
2022/12/09 03:25:23;;;;;;;12.95;6.92;;;;;;;;;;1773270;80;21087;-66
2022/12/09 03:27:50;;;;;;;12.90;6.12;;;;;;;;;;1764112;80;21042;-66
2022/12/09 03:30:16;;;;;;;12.85;6.42;;;;;;;;;;1760483;78;21080;-66
2022/12/09 03:32:43;;;;;;;14.40;5.90;;;;;;;;;;1756840;81;21017;-65
2022/12/09 03:35:11;;;;;;;11.63;6.00;;;;;;;;;;1761270;81;21004;-66
2022/12/09 03:37:38;;;;;;;10.08;4.60;;;;;;;;;;1760412;81;21072;-66
2022/12/09 03:40:05;;;;;;;10.53;5.95;;;;;;;;;;1760902;81;21080;-66
2022/12/09 03:42:36;;;;;;;12.85;6.42;;;;;;;;;;1746317;81;21005;-65
2022/12/09 03:45:04;;;;;;;12.18;5.67;;;;;;;;;;1761748;81;21539;-65
2022/12/09 03:47:32;;;;;;;11.70;5.80;;;;;;;;;;1761519;81;21618;-65
2022/12/09 03:49:59;;;;;;;11.90;5.92;;;;;;;;;;1761796;81;21040;-65
2022/12/09 03:52:27;;;;;;;13.38;6.95;;;;;;;;;;1745682;81;21019;-66
2022/12/09 03:54:58;;;;;;;12.45;6.70;;;;;;;;;;1740854;82;21046;-65
2022/12/09 03:57:24;;;;;;;13.08;6.30;;;;;;;;;;1743877;82;21043;-65
2022/12/09 03:59:57;;;;;;;11.28;5.35;;;;;;;;;;1743618;82;21590;-65
2022/12/09 04:02:23;;;;;;;10.58;6.15;;;;;;;;;;1743800;81;21055;-65
2022/12/09 04:04:49;;;;;;;10.03;5.15;;;;;;;;;;1743902;82;21067;-65
2022/12/09 04:07:16;;;;;;;10.93;5.78;;;;;;;;;;1743409;82;21571;-65
2022/12/09 04:09:42;;;;;;;9.63;5.50;;;;;;;;;;1743764;81;21015;-66
2022/12/09 04:12:09;;;;;;;9.70;5.15;;;;;;;;;;1743502;82;21075;-66
2022/12/09 04:14:36;;;;;;;12.88;6.22;;;;;;;;;;1757685;81;21492;-67
2022/12/09 04:17:02;;;;;;;10.58;5.05;;;;;;;;;;1705151;83;21515;-66
2022/12/09 04:19:30;;;;;;;11.65;5.67;;;;;;;;;;1686505;84;21656;-66
2022/12/09 04:21:58;;;;;;;10.28;5.35;;;;;;;;;;1689749;84;21580;-65
2022/12/09 04:24:24;;;;;;;9.90;5.58;;;;;;;;;;1673407;85;21032;-65
2022/12/09 04:26:50;;;;;;;10.00;5.97;;;;;;;;;;1699551;84;21493;-66
2022/12/09 04:29:16;;;;;;;10.65;5.45;;;;;;;;;;1704047;84;21049;-65
2022/12/09 04:31:43;;;;;;;12.07;6.33;;;;;;;;;;1715997;83;21094;-65
2022/12/09 04:34:08;;;;;;;10.35;5.47;;;;;;;;;;1702240;83;21045;-66
2022/12/09 04:36:34;;;;;;;9.88;5.42;;;;;;;;;;1693422;85;21080;-65
2022/12/09 04:39:01;;;;;;;11.15;5.75;;;;;;;;;;1689335;84;21112;-66
2022/12/09 04:41:27;;;;;;;14.05;6.30;;;;;;;;;;1670703;85;21138;-66
2022/12/09 04:43:54;;;;;;;11.43;6.17;;;;;;;;;;1671918;84;22490;-65
2022/12/09 04:46:20;;;;;;;12.10;5.45;;;;;;;;;;1731955;82;21091;-65
2022/12/09 04:48:47;;;;;;;10.80;5.30;;;;;;;;;;1723979;82;21029;-65
2022/12/09 04:51:13;;;;;;;11.63;6.40;;;;;;;;;;1718071;83;21101;-65
2022/12/09 04:53:40;;;;;;;9.95;5.20;;;;;;;;;;1717901;83;21029;-65
2022/12/09 04:56:17;;;;;;;20.55;8.80;;;;;;;;;;1718172;83;21124;-64
2022/12/09 04:58:44;;;;;;;12.73;5.78;;;;;;;;;;1736313;81;21100;-65
2022/12/09 05:01:14;;;;;;;34.58;14.78;;;;;;;;;;1742977;81;21760;-66
2022/12/09 05:03:40;;;;;;;24.37;10.93;;;;;;;;;;1730859;81;21516;-65
2022/12/09 05:06:08;;;;;;;15.72;7.75;;;;;;;;;;1738732;82;21033;-65
2022/12/09 05:08:34;;;;;;;11.15;5.80;;;;;;;;;;1739445;80;21044;-66
2022/12/09 05:11:00;;;;;;;12.18;5.97;;;;;;;;;;1737580;82;21061;-65
2022/12/09 05:13:26;;;;;;;11.83;5.33;;;;;;;;;;1732553;82;21088;-65
2022/12/09 05:15:53;;;;;;;10.50;5.60;;;;;;;;;;1730738;82;20994;-65
2022/12/09 05:18:19;;;;;;;9.03;5.45;;;;;;;;;;1720715;82;21013;-66
2022/12/09 05:20:45;;;;;;;8.68;4.80;;;;;;;;;;1728531;81;21046;-66
2022/12/09 05:23:12;;;;;;;10.82;5.47;;;;;;;;;;1735775;82;21044;-66
2022/12/09 05:25:38;;;;;;;9.65;4.80;;;;;;;;;;1739377;82;21103;-66
2022/12/09 05:28:04;;;;;;;8.75;4.70;;;;;;;;;;1739452;82;21056;-64
2022/12/09 05:30:30;;;;;;;7.33;4.55;;;;;;;;;;1737601;81;21584;-65
2022/12/09 05:32:56;;;;;;;6.15;4.12;;;;;;;;;;1741211;80;21165;-65
2022/12/09 05:35:23;;;;;;;7.75;4.72;;;;;;;;;;1736614;80;21033;-65
2022/12/09 05:37:49;;;;;;;9.30;5.30;;;;;;;;;;1728564;82;20990;-65
2022/12/09 05:40:15;;;;;;;9.00;5.20;;;;;;;;;;1746342;80;21555;-66
2022/12/09 05:42:41;;;;;;;9.60;5.22;;;;;;;;;;1747438;80;21032;-66
2022/12/09 05:45:09;;;;;;;9.18;4.90;;;;;;;;;;1748089;82;21025;-66
2022/12/09 05:47:36;;;;;;;9.80;4.97;;;;;;;;;;1748062;82;22087;-65
2022/12/09 05:50:03;;;;;;;8.90;4.65;;;;;;;;;;1747262;80;21033;-65
2022/12/09 05:52:29;;;;;;;8.03;4.37;;;;;;;;;;1739616;80;21044;-66
2022/12/09 05:54:55;;;;;;;8.73;4.97;;;;;;;;;;1734402;80;21065;-65
2022/12/09 05:57:21;;;;;;;7.47;4.42;;;;;;;;;;1742676;80;21017;-66
2022/12/09 05:59:47;;;;;;;9.00;4.72;;;;;;;;;;1748973;80;21510;-66
2022/12/09 06:02:13;;;;;;;9.05;4.75;;;;;;;;;;1753091;80;21076;-65
2022/12/09 06:04:40;;;;;;;9.40;5.17;;;;;;;;;;1747013;82;21052;-66
2022/12/09 06:07:06;;;;;;;9.73;5.28;;;;;;;;;;1720181;81;21032;-66
2022/12/09 06:09:32;;;;;;;9.43;4.97;;;;;;;;;;1737898;82;21048;-66
2022/12/09 06:11:58;;;;;;;9.80;4.92;;;;;;;;;;1748901;80;21044;-67
2022/12/09 06:14:24;;;;;;;13.60;5.55;;;;;;;;;;1753289;80;21009;-66
2022/12/09 06:16:51;;;;;;;29.50;12.63;;;;;;;;;;1747451;80;21576;-66
2022/12/09 06:19:17;;;;;;;90.87;30.95;;;;;;;;;;1755605;80;21632;-67
2022/12/09 06:21:43;;;;;;;28.52;14.00;;;;;;;;;;1753781;80;20997;-66
2022/12/09 06:24:09;;;;;;;20.72;8.38;;;;;;;;;;1733714;80;21005;-65
2022/12/09 06:26:36;;;;;;;50.33;18.17;;;;;;;;;;1746498;80;21048;-66
2022/12/09 06:29:02;;;;;;;29.82;11.83;;;;;;;;;;1755731;82;21119;-68
2022/12/09 06:31:28;;;;;;;41.08;14.20;;;;;;;;;;1755678;82;21535;-68
2022/12/09 06:33:54;;;;;;;16.77;8.38;;;;;;;;;;1749206;82;21527;-67
2022/12/09 06:36:21;;;;;;;19.67;8.18;;;;;;;;;;1755641;82;21049;-67
2022/12/09 06:38:47;;;;;;;22.30;9.48;;;;;;;;;;1755678;82;21057;-68
2022/12/09 06:41:14;;;;;;;17.17;7.90;;;;;;;;;;1748927;81;21059;-67
2022/12/09 06:57:08;;;;;;;17.70;8.55;;;;;;;;;;1825120;77;22540;-69
2022/12/09 06:59:36;;;;;;;16.80;8.85;;;;;;;;;;1784712;80;21052;-68
2022/12/09 07:02:02;;;;;;;13.58;7.10;;;;;;;;;;1785314;80;21548;-69
2022/12/09 07:04:28;;;;;;;15.63;7.47;;;;;;;;;;1784917;80;21005;-68
2022/12/09 07:06:54;;;;;;;16.70;7.75;;;;;;;;;;1781672;80;21040;-69
2022/12/09 07:09:21;;;;;;;20.75;9.13;;;;;;;;;;1770749;80;21020;-70
2022/12/09 07:11:47;;;;;;;18.12;8.48;;;;;;;;;;1771010;80;21337;-69
2022/12/09 07:14:13;;;;;;;15.15;7.20;;;;;;;;;;1777784;80;21021;-68
2022/12/09 07:16:39;;;;;;;17.27;7.75;;;;;;;;;;1772122;80;22237;-69
2022/12/09 07:19:05;;;;;;;16.80;8.28;;;;;;;;;;1792264;80;20977;-69
2022/12/09 07:21:32;;;;;;;17.80;8.28;;;;;;;;;;1774898;79;21012;-69
2022/12/09 07:23:58;;;;;;;15.35;7.42;;;;;;;;;;1765153;80;21044;-69
2022/12/09 07:26:24;;;;;;;17.67;7.30;;;;;;;;;;1768409;80;21072;-69
2022/12/09 07:28:50;;;;;;;17.42;7.22;;;;;;;;;;1767335;80;20934;-69
2022/12/09 07:31:17;;;;;;;14.13;6.85;;;;;;;;;;1781380;80;21044;-71
2022/12/09 07:33:43;;;;;;;16.82;7.47;;;;;;;;;;1777811;80;21009;-69
2022/12/09 07:36:09;;;;;;;14.25;6.45;;;;;;;;;;1771860;80;22314;-69
2022/12/09 07:38:35;;;;;;;11.68;5.67;;;;;;;;;;1786723;80;21004;-69
2022/12/09 07:41:04;;;;;;;15.03;6.83;;;;;;;;;;1771066;80;20981;-69
2022/12/09 07:43:32;;;;;;;12.23;6.22;;;;;;;;;;1782529;80;20993;-69
2022/12/09 07:45:58;;;;;;;18.37;8.08;;;;;;;;;;1780496;80;21000;-69
2022/12/09 07:48:24;;;;;;;21.35;10.60;;;;;;;;;;1766384;80;21672;-70
2022/12/09 07:50:50;;;;;;;13.15;7.28;;;;;;;;;;1775141;80;21172;-69
2022/12/09 07:53:16;;;;;;;12.90;5.60;;;;;;;;;;1772398;80;21443;-69
2022/12/09 07:55:42;;;;;;;11.28;5.67;;;;;;;;;;1775505;79;21044;-69
2022/12/09 07:58:08;;;;;;;14.73;6.90;;;;;;;;;;1766682;80;21601;-68
2022/12/09 08:00:34;;;;;;;13.08;5.67;;;;;;;;;;1779964;80;21007;-69
2022/12/09 08:03:00;;;;;;;13.00;6.90;;;;;;;;;;1765656;80;21548;-70
2022/12/09 08:05:26;;;;;;;17.65;8.15;;;;;;;;;;1774561;80;21534;-69
2022/12/09 08:07:51;;;;;;;15.93;7.08;;;;;;;;;;1775318;80;20999;-69
2022/12/09 08:10:18;;;;;;;15.85;7.35;;;;;;;;;;1766288;80;21031;-69
2022/12/09 08:12:44;;;;;;;15.30;7.90;;;;;;;;;;1764733;80;21551;-70
2022/12/09 08:15:10;;;;;;;13.95;7.25;;;;;;;;;;1769129;80;21014;-70
2022/12/09 08:17:36;;;;;;;15.68;8.50;;;;;;;;;;1775953;80;21021;-71
2022/12/09 08:20:02;;;;;;;17.92;8.63;;;;;;;;;;1782769;80;21445;-70
2022/12/09 08:22:29;;;;;;;12.95;7.40;;;;;;;;;;1775777;80;21027;-70
2022/12/09 08:24:55;;;;;;;14.87;7.62;;;;;;;;;;1763121;80;21039;-71
2022/12/09 08:27:21;;;;;;;14.53;7.08;;;;;;;;;;1780728;80;21065;-71
2022/12/09 08:29:47;;;;;;;13.65;7.30;;;;;;;;;;1766398;80;21133;-70
2022/12/09 08:32:15;;;;;;;16.05;7.50;;;;;;;;;;1765852;80;21047;-70
2022/12/09 08:34:41;;;;;;;14.58;7.28;;;;;;;;;;1774600;80;21059;-70
2022/12/09 08:37:07;;;;;;;18.05;7.47;;;;;;;;;;1775103;80;21518;-71
2022/12/09 08:39:33;;;;;;;16.45;8.43;;;;;;;;;;1760574;80;21032;-69
2022/12/09 08:42:00;;;;;;;12.93;7.30;;;;;;;;;;1768266;80;21011;-71
2022/12/09 08:44:26;;;;;;;16.17;7.90;;;;;;;;;;1767572;80;21062;-72
2022/12/09 08:46:52;;;;;;;17.85;8.38;;;;;;;;;;1767202;80;21079;-71
2022/12/09 08:49:20;;;;;;;16.95;7.85;;;;;;;;;;1765595;80;21107;-72
2022/12/09 08:51:49;;;;;;;16.07;8.80;;;;;;;;;;1777724;80;21110;-71
2022/12/09 08:54:15;;;;;;;16.80;8.35;;;;;;;;;;1762087;80;21044;-71
2022/12/09 08:56:45;;;;;;;17.92;9.40;;;;;;;;;;1776709;80;21507;-72
2022/12/09 08:59:12;;;;;;;17.77;8.68;;;;;;;;;;1772832;80;21487;-72
2022/12/09 09:01:38;;;;;;;19.77;10.85;;;;;;;;;;1752369;80;20972;-70
2022/12/09 09:04:05;;;;;;;17.30;9.60;;;;;;;;;;1758300;81;21487;-71
2022/12/09 09:06:31;;;;;;;19.15;9.28;;;;;;;;;;1773598;80;21055;-71
2022/12/09 09:08:57;;;;;;;17.37;9.15;;;;;;;;;;1752062;82;21000;-72
2022/12/09 09:11:26;;;;;;;18.67;9.03;;;;;;;;;;1743064;82;21032;-70
2022/12/09 09:13:52;;;;;;;18.85;9.68;;;;;;;;;;1723787;82;21430;-72
2022/12/09 09:16:20;;;;;;;19.02;8.98;;;;;;;;;;1733336;80;21558;-71
2022/12/09 09:18:46;;;;;;;18.45;8.80;;;;;;;;;;1732773;82;21479;-72
2022/12/09 09:21:13;;;;;;;17.02;8.98;;;;;;;;;;1736789;82;21094;-72
2022/12/09 09:23:39;;;;;;;20.45;9.03;;;;;;;;;;1707400;83;21048;-72
2022/12/09 09:26:06;;;;;;;19.25;10.18;;;;;;;;;;1741759;82;21032;-72
2022/12/09 09:28:32;;;;;;;25.12;12.93;;;;;;;;;;1736368;82;21080;-72
2022/12/09 09:31:02;;;;;;;28.30;13.48;;;;;;;;;;1731783;82;20973;-71
2022/12/09 09:33:28;;;;;;;17.57;9.35;;;;;;;;;;1711237;83;21060;-70
2022/12/09 09:35:58;;;;;;;18.45;9.28;;;;;;;;;;1749079;82;21153;-70
2022/12/09 09:38:25;;;;;;;20.43;10.10;;;;;;;;;;1739572;82;21016;-71
2022/12/09 09:40:51;;;;;;;20.82;10.23;;;;;;;;;;1728497;82;21134;-71
2022/12/09 09:43:18;;;;;;;18.60;10.13;;;;;;;;;;1745046;82;20992;-71
2022/12/09 09:45:46;;;;;;;19.95;10.38;;;;;;;;;;1732659;82;21021;-70
2022/12/09 09:48:14;;;;;;;19.52;10.23;;;;;;;;;;1737509;82;20992;-71
2022/12/09 09:50:51;;;;;;;18.05;9.23;;;;;;;;;;1699121;82;21004;-71
2022/12/09 09:53:22;;;;;;;20.68;10.05;;;;;;;;;;1723384;82;21060;-71
2022/12/09 09:55:49;;;;;;;16.20;8.83;;;;;;;;;;1729649;82;21563;-71
2022/12/09 09:58:18;;;;;;;17.10;8.80;;;;;;;;;;1705522;84;21041;-71
2022/12/09 10:00:49;;;;;;;17.70;9.10;;;;;;;;;;1765275;80;20981;-72
2022/12/09 10:03:17;;;;;;;16.52;9.38;;;;;;;;;;1752332;80;21008;-71
2022/12/09 10:05:44;;;;;;;19.57;9.98;;;;;;;;;;1764909;80;21083;-71
2022/12/09 10:08:13;;;;;;;19.32;10.25;;;;;;;;;;1779961;80;21606;-71
2022/12/09 10:10:46;;;;;;;18.57;9.65;;;;;;;;;;1781683;80;21084;-71
2022/12/09 10:13:25;;;;;;;23.12;11.03;;;;;;;;;;1770636;80;21031;-71
2022/12/09 10:16:10;;;;;;;19.42;10.65;;;;;;;;;;1776675;80;21516;-70
2022/12/09 10:18:38;;;;;;;18.73;10.10;;;;;;;;;;1781716;80;20969;-71
2022/12/09 10:21:05;;;;;;;21.50;10.55;;;;;;;;;;1778404;80;20991;-71
2022/12/09 10:23:32;;;;;;;19.05;9.45;;;;;;;;;;1744712;80;21555;-71
2022/12/09 10:25:59;;;;;;;21.10;10.15;;;;;;;;;;1774972;80;21008;-71
2022/12/09 10:28:27;;;;;;;25.65;12.25;;;;;;;;;;1745511;82;21048;-71
2022/12/09 10:30:54;;;;;;;21.25;11.03;;;;;;;;;;1721938;82;21080;-71
2022/12/09 10:33:28;;;;;;;18.85;9.08;;;;;;;;;;1742747;82;21028;-71
2022/12/09 10:35:53;;;;;;;18.73;9.48;;;;;;;;;;1739803;82;21044;-71
2022/12/09 10:38:22;;;;;;;16.50;8.73;;;;;;;;;;1730815;82;21037;-71
2022/12/09 10:41:07;;;;;;;18.57;9.33;;;;;;;;;;1723703;82;21044;-71
2022/12/09 10:43:41;;;;;;;18.65;8.73;;;;;;;;;;1710149;83;21575;-70
2022/12/09 10:46:06;;;;;;;22.30;10.58;;;;;;;;;;1745479;82;21029;-71
2022/12/09 10:48:33;;;;;;;14.00;7.75;;;;;;;;;;1734005;82;21017;-70
2022/12/09 10:51:00;;;;;;;16.45;9.35;;;;;;;;;;1765482;80;21063;-70
2022/12/09 10:53:27;;;;;;;18.07;9.48;;;;;;;;;;1774740;80;20992;-70
2022/12/09 10:55:53;;;;;;;18.12;8.93;;;;;;;;;;1759553;80;20960;-70
2022/12/09 10:58:20;;;;;;;17.37;8.95;;;;;;;;;;1766573;80;20960;-70
2022/12/09 11:01:06;;;;;;;16.32;8.43;;;;;;;;;;1767845;80;20948;-70
2022/12/09 11:03:34;;;;;;;18.98;9.25;;;;;;;;;;1785454;80;21012;-71
2022/12/09 11:06:01;;;;;;;20.25;9.70;;;;;;;;;;1783600;80;21016;-70
2022/12/09 11:08:27;;;;;;;19.92;9.30;;;;;;;;;;1765496;80;21051;-71
2022/12/09 11:10:53;;;;;;;21.48;10.18;;;;;;;;;;1789045;80;21012;-71
2022/12/09 11:13:19;;;;;;;22.07;10.48;;;;;;;;;;1785566;80;21015;-71
2022/12/09 11:15:47;;;;;;;22.90;10.90;;;;;;;;;;1761790;80;21547;-70
2022/12/09 11:18:17;;;;;;;29.35;13.53;;;;;;;;;;1752305;82;21587;-71
2022/12/09 11:20:45;;;;;;;35.58;14.18;;;;;;;;;;1774277;80;21076;-71
2022/12/09 11:23:14;;;;;;;28.02;14.00;;;;;;;;;;1782061;80;21000;-71
2022/12/09 11:25:52;;;;;;;29.27;14.23;;;;;;;;;;1762548;80;21558;-71
2022/12/09 11:28:22;;;;;;;30.37;14.55;;;;;;;;;;1778846;80;20966;-69
2022/12/09 11:30:50;;;;;;;22.67;10.68;;;;;;;;;;1781657;80;21075;-69
2022/12/09 11:33:26;;;;;;;19.35;9.35;;;;;;;;;;1770707;80;20988;-70
2022/12/09 11:47:28;;;;;;;32.00;17.37;;;;;;;;;;1781526;79;28128;-70
2022/12/09 11:49:55;;;;;;;41.58;18.52;;;;;;;;;;1750040;81;21031;-68
2022/12/09 11:52:24;;;;;;;63.20;25.17;;;;;;;;;;1742826;81;21085;-69
2022/12/09 11:55:08;;;;;;;177.70;53.68;;;;;;;;;;1764097;81;21096;-70
2022/12/09 11:57:49;;;;;;;69.67;31.68;;;;;;;;;;1751978;80;21064;-68
2022/12/09 12:00:16;;;;;;;160.32;52.90;;;;;;;;;;1732832;81;21028;-70
2022/12/09 12:03:00;;;;;;;105.75;35.08;;;;;;;;;;1746774;81;21250;-68
2022/12/09 12:05:31;;;;;;;89.28;30.72;;;;;;;;;;1726717;83;21020;-68
2022/12/09 12:08:14;;;;;;;44.48;19.27;;;;;;;;;;1744235;80;21024;-68
2022/12/09 12:10:42;;;;;;;28.23;13.70;;;;;;;;;;1740675;81;21771;-68
2022/12/09 12:13:09;;;;;;;22.67;12.30;;;;;;;;;;1710020;84;21082;-68
2022/12/09 12:15:46;;;;;;;19.80;10.58;;;;;;;;;;1736599;82;21550;-67
2022/12/09 12:18:14;;;;;;;20.88;11.28;;;;;;;;;;1750314;80;21060;-68
2022/12/09 12:20:54;;;;;;;18.70;10.70;;;;;;;;;;1754680;81;21071;-70
2022/12/09 12:23:28;;;;;;;18.00;10.98;;;;;;;;;;1745995;80;21053;-70
2022/12/09 12:26:02;;;;;;;21.30;11.10;;;;;;;;;;1741396;80;21524;-69
2022/12/09 12:28:33;;;;;;;22.70;12.13;;;;;;;;;;1723031;82;21555;-71
2022/12/09 12:31:10;;;;;;;22.73;13.68;;;;;;;;;;1733278;82;21527;-70
2022/12/09 12:33:44;;;;;;;21.12;11.20;;;;;;;;;;1748142;80;21020;-71
2022/12/09 12:36:18;;;;;;;20.85;11.22;;;;;;;;;;1757417;80;21053;-69
2022/12/09 12:38:46;;;;;;;20.37;11.22;;;;;;;;;;1749447;80;21012;-68
2022/12/09 12:41:31;;;;;;;21.52;10.60;;;;;;;;;;1758102;80;21020;-69
2022/12/09 12:46:55;;;;;;;18.40;9.05;;;;;;;;;;1770240;79;21061;-69
2022/12/09 12:49:26;;;;;;;16.35;9.28;;;;;;;;;;1769340;80;21023;-69
2022/12/09 12:51:54;;;;;;;19.35;9.58;;;;;;;;;;1766919;79;21078;-67
2022/12/09 12:54:22;;;;;;;19.45;10.25;;;;;;;;;;1773836;80;21035;-70
2022/12/09 12:57:07;;;;;;;17.40;9.85;;;;;;;;;;1767432;80;21043;-69
2022/12/09 12:59:35;;;;;;;18.70;9.18;;;;;;;;;;1772976;79;21015;-70
2022/12/09 13:02:20;;;;;;;17.82;9.50;;;;;;;;;;1768392;80;21073;-68
2022/12/09 13:04:48;;;;;;;16.67;8.90;;;;;;;;;;1768194;79;21523;-70
2022/12/09 13:07:16;;;;;;;21.40;10.65;;;;;;;;;;1771121;79;21031;-68
2022/12/09 13:09:43;;;;;;;17.70;9.65;;;;;;;;;;1764996;79;21548;-68
2022/12/09 13:12:17;;;;;;;18.90;10.18;;;;;;;;;;1764196;80;21054;-68
2022/12/09 13:14:45;;;;;;;17.07;9.58;;;;;;;;;;1767429;80;21090;-67
2022/12/09 13:17:12;;;;;;;19.75;10.50;;;;;;;;;;1761483;80;21072;-69
2022/12/09 13:19:40;;;;;;;19.62;10.13;;;;;;;;;;1765944;80;21039;-69
2022/12/09 13:22:08;;;;;;;16.52;8.88;;;;;;;;;;1785556;80;21047;-69
2022/12/09 13:24:41;;;;;;;18.30;10.13;;;;;;;;;;1760133;81;21023;-68
2022/12/09 13:27:12;;;;;;;20.02;11.00;;;;;;;;;;1763274;80;21098;-69
2022/12/09 13:29:49;;;;;;;20.52;11.85;;;;;;;;;;1766841;79;21456;-68
2022/12/09 13:32:32;;;;;;;21.27;11.75;;;;;;;;;;1738528;81;21764;-69
2022/12/09 13:35:00;;;;;;;23.38;12.05;;;;;;;;;;1764668;79;21126;-68
2022/12/09 13:37:31;;;;;;;22.58;11.40;;;;;;;;;;1743901;80;21115;-68
2022/12/09 13:39:57;;;;;;;25.52;13.85;;;;;;;;;;1742704;80;21067;-69
2022/12/09 13:45:18;;;;;;;23.07;10.80;;;;;;;;;;1751211;81;21008;-69
2022/12/09 13:47:45;;;;;;;22.20;10.95;;;;;;;;;;1731418;81;21035;-68
2022/12/09 13:50:29;;;;;;;24.63;12.18;;;;;;;;;;1744328;81;21032;-69
2022/12/09 13:53:00;;;;;;;23.20;11.97;;;;;;;;;;1750740;81;21047;-69
2022/12/09 13:55:30;;;;;;;22.35;10.90;;;;;;;;;;1750624;81;20981;-70
2022/12/09 13:58:01;;;;;;;21.95;10.68;;;;;;;;;;1743576;81;21028;-70
2022/12/09 14:00:28;;;;;;;22.67;11.08;;;;;;;;;;1743390;80;21074;-69
2022/12/09 14:02:56;;;;;;;20.05;10.30;;;;;;;;;;1754175;81;21061;-70
2022/12/09 14:05:23;;;;;;;19.17;10.60;;;;;;;;;;1754543;80;21472;-69
2022/12/09 14:07:54;;;;;;;22.35;10.82;;;;;;;;;;1761524;80;21012;-70
2022/12/09 14:10:34;;;;;;;18.92;10.25;;;;;;;;;;1746836;80;21073;-69
2022/12/09 14:13:01;;;;;;;18.75;10.82;;;;;;;;;;1745232;81;21103;-70
2022/12/09 14:15:29;;;;;;;17.60;9.55;;;;;;;;;;1747553;81;22082;-68
2022/12/09 14:17:57;;;;;;;21.00;10.48;;;;;;;;;;1738445;81;21034;-67
2022/12/09 14:20:26;;;;;;;21.70;11.10;;;;;;;;;;1731983;81;21530;-68
2022/12/09 14:23:10;;;;;;;20.20;10.72;;;;;;;;;;1760460;81;21214;-70
2022/12/09 14:25:38;;;;;;;56.45;25.85;;;;;;;;;;1758159;81;21031;-67
2022/12/09 14:28:12;;;;;;;38.40;19.77;;;;;;;;;;1750415;81;21078;-69
2022/12/09 14:30:49;;;;;;;38.05;18.65;;;;;;;;;;1746046;81;21074;-69
2022/12/09 14:33:23;;;;;;;42.33;21.50;;;;;;;;;;1733556;81;21070;-70
2022/12/09 14:35:50;;;;;;;30.10;16.93;;;;;;;;;;1740593;81;21095;-70
2022/12/09 14:38:22;;;;;;;32.45;17.00;;;;;;;;;;1756608;81;21558;-70
2022/12/09 14:40:49;;;;;;;36.05;17.12;;;;;;;;;;1735315;81;21478;-71
2022/12/09 14:43:34;;;;;;;41.95;20.37;;;;;;;;;;1754539;80;21011;-71
2022/12/09 14:46:04;;;;;;;39.75;18.75;;;;;;;;;;1760459;81;21527;-66
2022/12/09 14:48:32;;;;;;;25.17;13.50;;;;;;;;;;1756479;80;21063;-68
2022/12/09 14:51:05;;;;;;;34.08;18.32;;;;;;;;;;1755208;80;21013;-66
2022/12/09 14:53:32;;;;;;;78.07;38.80;;;;;;;;;;1729429;81;21037;-67
2022/12/09 14:55:58;;;;;;;72.22;35.85;;;;;;;;;;1761379;79;21022;-67
2022/12/09 14:58:24;;;;;;;49.45;25.52;;;;;;;;;;1751576;81;21067;-67
2022/12/09 15:00:58;;;;;;;35.92;18.52;;;;;;;;;;1754687;81;21099;-66
2022/12/09 15:03:24;;;;;;;46.02;22.80;;;;;;;;;;1767877;81;21039;-66
2022/12/09 15:05:55;;;;;;;45.17;23.47;;;;;;;;;;1755985;81;21090;-67
2022/12/09 15:08:31;;;;;;;43.63;20.70;;;;;;;;;;1761735;80;21061;-67
2022/12/09 15:10:58;;;;;;;52.20;23.80;;;;;;;;;;1763699;80;21037;-67
2022/12/09 15:13:24;;;;;;;57.00;24.87;;;;;;;;;;1769108;81;21024;-66
2022/12/09 15:15:52;;;;;;;65.15;27.17;;;;;;;;;;1764943;81;21056;-66
2022/12/09 15:18:23;;;;;;;46.08;20.15;;;;;;;;;;1768371;81;21040;-67
2022/12/09 15:42:09;;;;;;;45.63;20.48;;;;;;;;;;1766748;78;21182;-71
2022/12/09 15:44:37;;;;;;;34.45;18.17;;;;;;;;;;1753983;80;21046;-70
2022/12/09 15:47:05;;;;;;;43.68;19.23;;;;;;;;;;1750022;81;21029;-69
2022/12/09 15:49:32;;;;;;;41.28;19.35;;;;;;;;;;1716705;83;21077;-68
2022/12/09 15:51:58;;;;;;;38.10;19.65;;;;;;;;;;1715288;82;21596;-69
2022/12/09 15:54:29;;;;;;;42.90;18.82;;;;;;;;;;1729133;82;21090;-70
2022/12/09 15:56:59;;;;;;;35.70;17.75;;;;;;;;;;1718308;83;21072;-70
2022/12/09 15:59:27;;;;;;;40.30;19.23;;;;;;;;;;1717361;82;21216;-69
2022/12/09 16:01:55;;;;;;;39.48;19.62;;;;;;;;;;1745144;81;21122;-68
2022/12/09 16:04:23;;;;;;;38.80;18.77;;;;;;;;;;1741969;81;21066;-69
2022/12/09 16:06:50;;;;;;;36.90;16.95;;;;;;;;;;1753565;81;22172;-69
2022/12/09 16:09:17;;;;;;;33.85;17.00;;;;;;;;;;1750367;81;21076;-70
2022/12/09 16:11:47;;;;;;;33.60;15.88;;;;;;;;;;1749515;81;21195;-70
2022/12/09 16:14:13;;;;;;;32.50;15.25;;;;;;;;;;1749065;81;21028;-72
2022/12/09 16:16:46;;;;;;;36.15;16.73;;;;;;;;;;1749080;81;21564;-71
2022/12/09 16:19:33;;;;;;;32.00;16.10;;;;;;;;;;1757618;80;21087;-72
2022/12/09 16:22:01;;;;;;;32.23;15.08;;;;;;;;;;1756787;80;21027;-71
2022/12/09 16:24:27;;;;;;;32.00;15.13;;;;;;;;;;1740466;81;21106;-71
2022/12/09 16:26:53;;;;;;;33.63;15.50;;;;;;;;;;1752668;81;21542;-72
2022/12/09 16:29:25;;;;;;;31.35;14.73;;;;;;;;;;1754532;80;21313;-72
2022/12/09 16:32:09;;;;;;;35.30;15.78;;;;;;;;;;1751498;80;21047;-70
2022/12/09 16:34:36;;;;;;;33.42;15.00;;;;;;;;;;1745456;81;22033;-71
2022/12/09 16:37:02;;;;;;;29.57;14.65;;;;;;;;;;1746673;81;21608;-71
2022/12/09 16:39:30;;;;;;;32.60;15.20;;;;;;;;;;1738331;81;21082;-69
2022/12/09 16:42:08;;;;;;;31.68;15.58;;;;;;;;;;1758563;79;21601;-70
2022/12/09 16:44:35;;;;;;;32.58;15.05;;;;;;;;;;1754749;81;21641;-69
2022/12/09 16:47:15;;;;;;;36.25;15.48;;;;;;;;;;1745411;80;21083;-71
2022/12/09 16:49:44;;;;;;;34.35;15.43;;;;;;;;;;1753786;81;21023;-70
2022/12/09 16:52:14;;;;;;;34.80;16.73;;;;;;;;;;1784542;79;22078;-69
2022/12/09 16:54:41;;;;;;;37.30;16.75;;;;;;;;;;1773321;79;21082;-68
2022/12/09 16:57:09;;;;;;;45.70;20.95;;;;;;;;;;1778193;79;21094;-69
2022/12/09 16:59:35;;;;;;;43.75;20.10;;;;;;;;;;1768935;79;20991;-69
2022/12/09 17:02:04;;;;;;;38.95;18.27;;;;;;;;;;1739856;81;21006;-71
2022/12/09 17:04:31;;;;;;;34.98;17.87;;;;;;;;;;1742815;81;21055;-70
2022/12/09 17:06:57;;;;;;;34.48;16.85;;;;;;;;;;1770513;80;20983;-72
2022/12/09 17:09:24;;;;;;;36.65;16.25;;;;;;;;;;1778700;79;21004;-69
2022/12/09 17:11:50;;;;;;;38.63;18.35;;;;;;;;;;1748259;81;21535;-70
2022/12/09 17:14:16;;;;;;;35.60;16.25;;;;;;;;;;1782543;79;21508;-69
2022/12/09 17:16:42;;;;;;;37.65;16.35;;;;;;;;;;1719847;81;21114;-71
2022/12/09 17:19:09;;;;;;;38.98;17.27;;;;;;;;;;1767775;80;21052;-70
2022/12/09 17:21:35;;;;;;;38.73;18.27;;;;;;;;;;1780936;79;21540;-70
2022/12/09 17:24:01;;;;;;;35.73;17.55;;;;;;;;;;1774943;80;21005;-70
2022/12/09 17:26:27;;;;;;;39.15;16.65;;;;;;;;;;1786883;79;21093;-70
2022/12/09 17:28:54;;;;;;;39.80;16.65;;;;;;;;;;1742074;80;21001;-70
2022/12/09 17:31:21;;;;;;;38.45;18.00;;;;;;;;;;1748045;80;21517;-70
2022/12/09 17:33:47;;;;;;;47.85;19.12;;;;;;;;;;1776366;79;21568;-70
2022/12/09 17:36:13;;;;;;;53.25;25.97;;;;;;;;;;1783565;79;20983;-70
2022/12/09 17:38:39;;;;;;;42.38;19.37;;;;;;;;;;1771879;79;21068;-71
2022/12/09 17:41:06;;;;;;;41.15;17.27;;;;;;;;;;1762683;81;21102;-71
2022/12/09 17:43:33;;;;;;;49.85;21.12;;;;;;;;;;1717637;81;21114;-70
2022/12/09 17:45:59;;;;;;;45.63;21.48;;;;;;;;;;1709189;82;21031;-70
2022/12/09 17:48:28;;;;;;;40.28;19.75;;;;;;;;;;1706379;82;21767;-70
2022/12/09 17:50:54;;;;;;;43.73;20.37;;;;;;;;;;1749208;80;21073;-71
2022/12/09 17:53:21;;;;;;;48.23;21.37;;;;;;;;;;1749740;80;21166;-71
2022/12/09 17:55:47;;;;;;;46.50;21.90;;;;;;;;;;1748569;80;21014;-70
2022/12/09 17:58:13;;;;;;;50.58;22.30;;;;;;;;;;1749550;80;21055;-70
2022/12/09 18:00:39;;;;;;;47.23;22.07;;;;;;;;;;1755252;80;21503;-71
2022/12/09 18:03:05;;;;;;;47.48;21.37;;;;;;;;;;1761365;80;21014;-71